createdAt,value
2019-03-03T00:00:34.757Z,1017.52
2019-03-03T00:01:34.767Z,1017.53
2019-03-03T00:02:34.752Z,1017.53
2019-03-03T00:03:34.777Z,1017.49
2019-03-03T00:04:34.762Z,1017.44
2019-03-03T00:05:34.751Z,1017.44
2019-03-03T00:06:34.740Z,1017.43
2019-03-03T00:07:34.754Z,1017.43
2019-03-03T00:08:34.735Z,1017.4
2019-03-03T00:09:34.735Z,1017.41
2019-03-03T00:10:34.723Z,1017.4
2019-03-03T00:11:34.736Z,1017.43
2019-03-03T00:12:34.738Z,1017.41
2019-03-03T00:13:34.766Z,1017.42
2019-03-03T00:14:34.740Z,1017.38
2019-03-03T00:15:34.718Z,1017.39
2019-03-03T00:16:34.745Z,1017.34
2019-03-03T00:17:34.724Z,1017.36
2019-03-03T00:18:34.720Z,1017.35
2019-03-03T00:19:34.731Z,1017.32
2019-03-03T00:20:34.732Z,1017.28
2019-03-03T00:21:34.730Z,1017.37
2019-03-03T00:22:34.745Z,1017.37
2019-03-03T00:23:34.733Z,1017.4
2019-03-03T00:24:34.722Z,1017.36
2019-03-03T00:25:34.750Z,1017.35
2019-03-03T00:26:34.997Z,1017.37
2019-03-03T00:27:34.797Z,1017.44
2019-03-03T00:28:34.715Z,1017.39
2019-03-03T00:29:34.738Z,1017.41
2019-03-03T00:30:34.709Z,1017.4
2019-03-03T00:31:34.731Z,1017.44
2019-03-03T00:32:34.737Z,1017.47
2019-03-03T00:33:34.714Z,1017.39
2019-03-03T00:34:34.705Z,1017.47
2019-03-03T00:35:34.717Z,1017.44
2019-03-03T00:36:34.711Z,1017.39
2019-03-03T00:37:34.692Z,1017.41
2019-03-03T00:38:34.706Z,1017.42
2019-03-03T00:39:34.701Z,1017.43
2019-03-03T00:40:34.708Z,1017.45
2019-03-03T00:41:34.684Z,1017.44
2019-03-03T00:42:34.690Z,1017.45
2019-03-03T00:43:34.766Z,1017.5
2019-03-03T00:44:34.717Z,1017.49
2019-03-03T00:45:34.705Z,1017.44
2019-03-03T00:46:34.705Z,1017.53
2019-03-03T00:47:34.671Z,1017.54
2019-03-03T00:48:34.724Z,1017.52
2019-03-03T00:49:34.685Z,1017.6
2019-03-03T00:50:34.677Z,1017.55
2019-03-03T00:51:34.680Z,1017.53
2019-03-03T00:52:34.672Z,1017.53
2019-03-03T00:53:34.693Z,1017.51
2019-03-03T00:54:34.667Z,1017.51
2019-03-03T00:55:34.682Z,1017.44
2019-03-03T00:56:34.674Z,1017.43
2019-03-03T00:57:34.660Z,1017.4
2019-03-03T00:58:34.696Z,1017.39
2019-03-03T00:59:34.655Z,1017.38
2019-03-03T01:00:34.657Z,1017.38
2019-03-03T01:01:34.673Z,1017.43
2019-03-03T01:02:34.678Z,1017.36
2019-03-03T01:03:34.685Z,1017.37
2019-03-03T01:04:34.660Z,1017.37
2019-03-03T01:05:34.667Z,1017.34
2019-03-03T01:06:34.650Z,1017.39
2019-03-03T01:07:34.648Z,1017.43
2019-03-03T01:08:34.643Z,1017.45
2019-03-03T01:09:34.991Z,1017.46
2019-03-03T01:10:34.673Z,1017.45
2019-03-03T01:11:34.660Z,1017.51
2019-03-03T01:12:34.656Z,1017.48
2019-03-03T01:13:34.650Z,1017.46
2019-03-03T01:14:34.649Z,1017.46
2019-03-03T01:15:34.634Z,1017.48
2019-03-03T01:16:34.664Z,1017.5
2019-03-03T01:17:34.718Z,1017.44
2019-03-03T01:18:34.663Z,1017.46
2019-03-03T01:19:34.645Z,1017.46
2019-03-03T01:20:34.622Z,1017.5
2019-03-03T01:21:34.626Z,1017.49
2019-03-03T01:22:34.637Z,1017.46
2019-03-03T01:23:34.638Z,1017.48
2019-03-03T01:24:34.630Z,1017.45
2019-03-03T01:25:34.627Z,1017.43
2019-03-03T01:26:34.625Z,1017.44
2019-03-03T01:27:34.621Z,1017.41
2019-03-03T01:28:34.646Z,1017.4
2019-03-03T01:29:34.645Z,1017.38
2019-03-03T01:30:34.634Z,1017.33
2019-03-03T01:31:34.759Z,1017.34
2019-03-03T01:32:34.631Z,1017.36
2019-03-03T01:33:34.644Z,1017.32
2019-03-03T01:34:34.627Z,1017.37
2019-03-03T01:35:34.638Z,1017.35
2019-03-03T01:36:34.622Z,1017.36
2019-03-03T01:37:34.611Z,1017.33
2019-03-03T01:38:34.620Z,1017.32
2019-03-03T01:39:34.619Z,1017.31
2019-03-03T01:40:34.604Z,1017.28
2019-03-03T01:41:34.601Z,1017.26
2019-03-03T01:42:34.599Z,1017.26
2019-03-03T01:43:34.607Z,1017.21
2019-03-03T01:44:34.602Z,1017.24
2019-03-03T01:45:34.599Z,1017.22
2019-03-03T01:46:34.637Z,1017.22
2019-03-03T01:47:34.592Z,1017.22
2019-03-03T01:48:34.600Z,1017.18
2019-03-03T01:49:34.588Z,1017.22
2019-03-03T01:50:34.599Z,1017.21
2019-03-03T01:51:34.590Z,1017.16
2019-03-03T01:52:34.579Z,1017.19
2019-03-03T01:53:34.735Z,1017.23
2019-03-03T01:54:34.654Z,1017.16
2019-03-03T01:55:34.602Z,1017.16
2019-03-03T01:56:34.581Z,1017.18
2019-03-03T01:57:34.562Z,1017.16
2019-03-03T01:58:34.584Z,1017.12
2019-03-03T01:59:34.605Z,1017.08
2019-03-03T02:00:34.577Z,1017.09
2019-03-03T02:01:34.605Z,1017.08
2019-03-03T02:02:34.613Z,1017.08
2019-03-03T02:03:34.559Z,1017.08
2019-03-03T02:04:34.574Z,1017.05
2019-03-03T02:05:34.564Z,1017.05
2019-03-03T02:06:34.561Z,1017.08
2019-03-03T02:07:34.556Z,1017.08
2019-03-03T02:08:34.566Z,1017.04
2019-03-03T02:09:34.572Z,1017.01
2019-03-03T02:10:34.547Z,1016.96
2019-03-03T02:11:34.557Z,1017.02
2019-03-03T02:12:34.604Z,1016.97
2019-03-03T02:13:34.603Z,1016.99
2019-03-03T02:14:34.584Z,1016.99
2019-03-03T02:15:34.579Z,1016.92
2019-03-03T02:16:34.546Z,1016.94
2019-03-03T02:17:34.578Z,1016.92
2019-03-03T02:18:34.547Z,1016.91
2019-03-03T02:19:34.550Z,1016.9
2019-03-03T02:20:34.565Z,1016.92
2019-03-03T02:21:34.536Z,1016.89
2019-03-03T02:22:34.548Z,1016.82
2019-03-03T02:23:34.709Z,1016.86
2019-03-03T02:24:34.681Z,1016.84
2019-03-03T02:25:34.580Z,1016.84
2019-03-03T02:26:34.576Z,1016.82
2019-03-03T02:27:34.537Z,1016.78
2019-03-03T02:28:34.538Z,1016.78
2019-03-03T02:29:34.547Z,1016.8
2019-03-03T02:30:34.549Z,1016.74
2019-03-03T02:31:34.526Z,1016.78
2019-03-03T02:32:34.562Z,1016.78
2019-03-03T02:33:34.537Z,1016.71
2019-03-03T02:34:34.550Z,1016.71
2019-03-03T02:35:34.525Z,1016.7
2019-03-03T02:36:34.572Z,1016.67
2019-03-03T02:37:34.558Z,1016.7
2019-03-03T02:38:34.512Z,1016.7
2019-03-03T02:39:34.548Z,1016.68
2019-03-03T02:40:34.543Z,1016.65
2019-03-03T02:41:34.532Z,1016.65
2019-03-03T02:42:34.523Z,1016.67
2019-03-03T02:43:34.506Z,1016.68
2019-03-03T02:44:34.528Z,1016.68
2019-03-03T02:45:34.499Z,1016.69
2019-03-03T02:46:35.759Z,1016.64
2019-03-03T02:47:34.528Z,1016.67
2019-03-03T02:48:34.507Z,1016.66
2019-03-03T02:49:34.549Z,1016.62
2019-03-03T02:50:34.534Z,1016.6
2019-03-03T02:51:34.522Z,1016.58
2019-03-03T02:52:34.518Z,1016.58
2019-03-03T02:53:34.573Z,1016.55
2019-03-03T02:54:34.528Z,1016.55
2019-03-03T02:55:34.503Z,1016.56
2019-03-03T02:56:34.506Z,1016.48
2019-03-03T02:57:34.500Z,1016.51
2019-03-03T02:58:34.498Z,1016.54
2019-03-03T02:59:34.505Z,1016.54
2019-03-03T03:00:34.808Z,1016.52
2019-03-03T03:01:34.507Z,1016.5
2019-03-03T03:02:34.483Z,1016.53
2019-03-03T03:03:34.507Z,1016.53
2019-03-03T03:04:34.491Z,1016.51
2019-03-03T03:05:34.497Z,1016.49
2019-03-03T03:06:34.523Z,1016.45
2019-03-03T03:07:34.789Z,1016.45
2019-03-03T03:08:34.577Z,1016.44
2019-03-03T03:09:34.502Z,1016.45
2019-03-03T03:10:34.489Z,1016.42
2019-03-03T03:11:34.476Z,1016.41
2019-03-03T03:12:34.491Z,1016.45
2019-03-03T03:13:34.487Z,1016.43
2019-03-03T03:14:34.481Z,1016.47
2019-03-03T03:15:34.479Z,1016.46
2019-03-03T03:16:34.501Z,1016.47
2019-03-03T03:17:34.481Z,1016.38
2019-03-03T03:18:34.457Z,1016.37
2019-03-03T03:19:34.490Z,1016.34
2019-03-03T03:20:34.496Z,1016.32
2019-03-03T03:21:34.450Z,1016.33
2019-03-03T03:22:34.458Z,1016.35
2019-03-03T03:23:34.557Z,1016.35
2019-03-03T03:24:34.467Z,1016.32
2019-03-03T03:25:34.470Z,1016.25
2019-03-03T03:26:34.501Z,1016.22
2019-03-03T03:27:34.477Z,1016.29
2019-03-03T03:28:34.455Z,1016.31
2019-03-03T03:29:34.922Z,1016.26
2019-03-03T03:30:34.501Z,1016.25
2019-03-03T03:31:34.467Z,1016.25
2019-03-03T03:32:34.444Z,1016.23
2019-03-03T03:33:34.486Z,1016.23
2019-03-03T03:34:34.465Z,1016.25
2019-03-03T03:35:34.458Z,1016.32
2019-03-03T03:36:37.121Z,1016.3
2019-03-03T03:37:34.472Z,1016.28
2019-03-03T03:38:34.442Z,1016.22
2019-03-03T03:39:34.452Z,1016.23
2019-03-03T03:40:34.451Z,1016.21
2019-03-03T03:41:34.450Z,1016.21
2019-03-03T03:42:34.437Z,1016.2
2019-03-03T03:43:34.458Z,1016.2
2019-03-03T03:44:34.450Z,1016.18
2019-03-03T03:45:34.453Z,1016.2
2019-03-03T03:46:34.422Z,1016.14
2019-03-03T03:47:34.444Z,1016.13
2019-03-03T03:48:34.432Z,1016.14
2019-03-03T03:49:34.424Z,1016.16
2019-03-03T03:50:34.439Z,1016.13
2019-03-03T03:51:34.501Z,1016.1
2019-03-03T03:52:34.473Z,1016.05
2019-03-03T03:53:34.435Z,1016.1
2019-03-03T03:54:34.465Z,1016.14
2019-03-03T03:55:34.424Z,1016.17
2019-03-03T03:56:34.426Z,1016.22
2019-03-03T03:57:34.412Z,1016.16
2019-03-03T03:58:34.435Z,1016.16
2019-03-03T03:59:34.435Z,1016.14
2019-03-03T04:00:34.420Z,1016.16
2019-03-03T04:01:34.525Z,1016.15
2019-03-03T04:02:34.467Z,1016.13
2019-03-03T04:03:34.416Z,1016.17
2019-03-03T04:04:34.415Z,1016.13
2019-03-03T04:05:34.419Z,1016.13
2019-03-03T04:06:34.418Z,1016.13
2019-03-03T04:07:34.398Z,1016.11
2019-03-03T04:08:34.413Z,1016.12
2019-03-03T04:09:34.412Z,1016.1
2019-03-03T04:10:34.391Z,1016.09
2019-03-03T04:11:34.401Z,1016.13
2019-03-03T04:12:34.418Z,1016.12
2019-03-03T04:13:34.528Z,1016.16
2019-03-03T04:14:35.015Z,1016.2
2019-03-03T04:15:34.385Z,1016.21
2019-03-03T04:16:34.403Z,1016.25
2019-03-03T04:17:34.405Z,1016.2
2019-03-03T04:18:34.397Z,1016.21
2019-03-03T04:19:34.398Z,1016.24
2019-03-03T04:20:34.395Z,1016.22
2019-03-03T04:21:34.386Z,1016.24
2019-03-03T04:22:34.396Z,1016.28
2019-03-03T04:23:34.379Z,1016.2
2019-03-03T04:24:34.412Z,1016.25
2019-03-03T04:25:34.386Z,1016.24
2019-03-03T04:26:34.390Z,1016.23
2019-03-03T04:27:34.390Z,1016.23
2019-03-03T04:28:34.398Z,1016.25
2019-03-03T04:29:34.386Z,1016.2
2019-03-03T04:30:34.385Z,1016.25
2019-03-03T04:31:34.387Z,1016.26
2019-03-03T04:32:34.361Z,1016.27
2019-03-03T04:33:34.351Z,1016.28
2019-03-03T04:34:34.363Z,1016.27
2019-03-03T04:35:34.361Z,1016.27
2019-03-03T04:36:34.365Z,1016.32
2019-03-03T04:37:34.374Z,1016.26
2019-03-03T04:38:34.348Z,1016.26
2019-03-03T04:39:34.361Z,1016.26
2019-03-03T04:40:34.358Z,1016.26
2019-03-03T04:41:34.354Z,1016.25
2019-03-03T04:42:34.367Z,1016.24
2019-03-03T04:43:34.364Z,1016.25
2019-03-03T04:44:34.362Z,1016.25
2019-03-03T04:45:34.357Z,1016.24
2019-03-03T04:46:34.358Z,1016.23
2019-03-03T04:47:34.354Z,1016.23
2019-03-03T04:48:34.392Z,1016.25
2019-03-03T04:49:34.371Z,1016.23
2019-03-03T04:50:34.354Z,1016.26
2019-03-03T04:51:34.361Z,1016.27
2019-03-03T04:52:34.344Z,1016.24
2019-03-03T04:53:34.370Z,1016.27
2019-03-03T04:54:34.347Z,1016.26
2019-03-03T04:55:34.351Z,1016.24
2019-03-03T04:56:34.326Z,1016.24
2019-03-03T04:57:34.342Z,1016.19
2019-03-03T04:58:34.473Z,1016.22
2019-03-03T04:59:34.418Z,1016.17
2019-03-03T05:00:34.344Z,1016.2
2019-03-03T05:01:34.348Z,1016.18
2019-03-03T05:02:34.348Z,1016.16
2019-03-03T05:03:34.346Z,1016.16
2019-03-03T05:04:34.348Z,1016.1
2019-03-03T05:05:34.329Z,1016.11
2019-03-03T05:06:34.315Z,1016.15
2019-03-03T05:07:34.349Z,1016.14
2019-03-03T05:08:34.358Z,1016.1
2019-03-03T05:09:34.337Z,1016.07
2019-03-03T05:10:34.347Z,1016.02
2019-03-03T05:11:34.321Z,1015.98
2019-03-03T05:12:34.332Z,1015.97
2019-03-03T05:13:34.396Z,1015.98
2019-03-03T05:14:34.326Z,1015.97
2019-03-03T05:15:34.331Z,1015.92
2019-03-03T05:16:34.347Z,1015.95
2019-03-03T05:17:34.317Z,1015.94
2019-03-03T05:18:34.317Z,1015.97
2019-03-03T05:19:34.307Z,1015.99
2019-03-03T05:20:34.313Z,1016.03
2019-03-03T05:21:34.629Z,1016.05
2019-03-03T05:22:34.293Z,1016.06
2019-03-03T05:23:34.300Z,1016.09
2019-03-03T05:24:34.810Z,1016.11
2019-03-03T05:25:34.304Z,1016.1
2019-03-03T05:26:34.316Z,1016.14
2019-03-03T05:27:34.308Z,1016.12
2019-03-03T05:28:34.306Z,1016.11
2019-03-03T05:29:34.321Z,1016.13
2019-03-03T05:30:34.293Z,1016.14
2019-03-03T05:31:34.290Z,1016.1
2019-03-03T05:32:34.291Z,1016.15
2019-03-03T05:33:34.275Z,1016.17
2019-03-03T05:34:34.279Z,1016.12
2019-03-03T05:35:34.300Z,1016.12
2019-03-03T05:36:34.285Z,1016.15
2019-03-03T05:37:34.303Z,1016.14
2019-03-03T05:38:34.358Z,1016.12
2019-03-03T05:39:34.296Z,1016.11
2019-03-03T05:40:34.299Z,1016.13
2019-03-03T05:41:34.282Z,1016.07
2019-03-03T05:42:34.281Z,1016.07
2019-03-03T05:43:34.471Z,1016.02
2019-03-03T05:44:34.277Z,1016.1
2019-03-03T05:45:34.259Z,1016.1
2019-03-03T05:46:34.260Z,1016.07
2019-03-03T05:47:34.291Z,1016.02
2019-03-03T05:48:34.299Z,1015.99
2019-03-03T05:49:34.251Z,1016.09
2019-03-03T05:50:34.263Z,1016.03
2019-03-03T05:51:34.261Z,1016.02
2019-03-03T05:52:34.290Z,1016.02
2019-03-03T05:53:34.257Z,1016.04
2019-03-03T05:54:34.259Z,1016.01
2019-03-03T05:55:34.273Z,1015.99
2019-03-03T05:56:34.240Z,1016.01
2019-03-03T05:57:34.267Z,1016.04
2019-03-03T05:58:34.240Z,1015.97
2019-03-03T05:59:34.250Z,1015.93
2019-03-03T06:00:34.310Z,1015.91
2019-03-03T06:01:34.461Z,1015.91
2019-03-03T06:02:34.256Z,1015.94
2019-03-03T06:03:34.246Z,1015.87
2019-03-03T06:04:34.274Z,1015.89
2019-03-03T06:05:34.320Z,1015.89
2019-03-03T06:06:34.315Z,1015.91
2019-03-03T06:07:34.237Z,1015.86
2019-03-03T06:08:34.242Z,1015.86
2019-03-03T06:09:34.236Z,1015.84
2019-03-03T06:10:34.224Z,1015.83
2019-03-03T06:11:34.241Z,1015.86
2019-03-03T06:12:34.229Z,1015.86
2019-03-03T06:13:34.240Z,1015.81
2019-03-03T06:14:34.241Z,1015.78
2019-03-03T06:15:34.281Z,1015.84
2019-03-03T06:16:34.223Z,1015.79
2019-03-03T06:17:34.219Z,1015.72
2019-03-03T06:18:34.248Z,1015.7
2019-03-03T06:19:34.246Z,1015.78
2019-03-03T06:20:34.215Z,1015.65
2019-03-03T06:21:34.223Z,1015.64
2019-03-03T06:22:34.223Z,1015.66
2019-03-03T06:23:34.218Z,1015.61
2019-03-03T06:24:34.225Z,1015.68
2019-03-03T06:25:34.224Z,1015.65
2019-03-03T06:26:34.218Z,1015.65
2019-03-03T06:27:34.270Z,1015.61
2019-03-03T06:28:34.223Z,1015.56
2019-03-03T06:29:34.230Z,1015.58
2019-03-03T06:30:34.235Z,1015.65
2019-03-03T06:31:34.197Z,1015.59
2019-03-03T06:32:34.207Z,1015.56
2019-03-03T06:33:34.211Z,1015.53
2019-03-03T06:34:34.201Z,1015.47
2019-03-03T06:35:34.206Z,1015.51
2019-03-03T06:36:34.212Z,1015.5
2019-03-03T06:37:34.196Z,1015.46
2019-03-03T06:38:34.193Z,1015.41
2019-03-03T06:39:34.266Z,1015.4
2019-03-03T06:40:34.195Z,1015.5
2019-03-03T06:41:34.193Z,1015.4
2019-03-03T06:42:34.219Z,1015.42
2019-03-03T06:43:34.194Z,1015.44
2019-03-03T06:44:34.214Z,1015.44
2019-03-03T06:45:34.182Z,1015.45
2019-03-03T06:46:34.188Z,1015.44
2019-03-03T06:47:34.182Z,1015.43
2019-03-03T06:48:34.180Z,1015.43
2019-03-03T06:49:34.315Z,1015.38
2019-03-03T06:50:34.207Z,1015.41
2019-03-03T06:51:34.261Z,1015.37
2019-03-03T06:52:34.190Z,1015.39
2019-03-03T06:53:34.176Z,1015.37
2019-03-03T06:54:34.200Z,1015.42
2019-03-03T06:55:34.188Z,1015.33
2019-03-03T06:56:34.196Z,1015.38
2019-03-03T06:57:34.185Z,1015.35
2019-03-03T06:58:34.166Z,1015.4
2019-03-03T06:59:34.203Z,1015.39
2019-03-03T07:00:34.164Z,1015.39
2019-03-03T07:01:34.172Z,1015.38
2019-03-03T07:02:34.154Z,1015.43
2019-03-03T07:03:34.178Z,1015.44
2019-03-03T07:04:34.154Z,1015.44
2019-03-03T07:05:34.160Z,1015.47
2019-03-03T07:06:34.162Z,1015.49
2019-03-03T07:07:34.164Z,1015.47
2019-03-03T07:08:34.188Z,1015.44
2019-03-03T07:09:34.183Z,1015.48
2019-03-03T07:10:34.180Z,1015.45
2019-03-03T07:11:34.238Z,1015.48
2019-03-03T07:12:34.153Z,1015.51
2019-03-03T07:13:34.184Z,1015.5
2019-03-03T07:14:34.150Z,1015.47
2019-03-03T07:15:34.160Z,1015.55
2019-03-03T07:16:34.139Z,1015.52
2019-03-03T07:17:34.158Z,1015.51
2019-03-03T07:18:34.144Z,1015.59
2019-03-03T07:19:34.146Z,1015.65
2019-03-03T07:20:34.149Z,1015.64
2019-03-03T07:21:34.148Z,1015.66
2019-03-03T07:22:34.130Z,1015.67
2019-03-03T07:23:34.142Z,1015.67
2019-03-03T07:24:34.131Z,1015.64
2019-03-03T07:25:34.125Z,1015.68
2019-03-03T07:26:34.151Z,1015.57
2019-03-03T07:27:34.165Z,1015.66
2019-03-03T07:28:34.127Z,1015.64
2019-03-03T07:29:34.127Z,1015.63
2019-03-03T07:30:34.129Z,1015.58
2019-03-03T07:31:34.137Z,1015.53
2019-03-03T07:32:34.189Z,1015.57
2019-03-03T07:33:34.377Z,1015.56
2019-03-03T07:34:34.130Z,1015.58
2019-03-03T07:35:34.132Z,1015.56
2019-03-03T07:36:34.190Z,1015.59
2019-03-03T07:37:34.117Z,1015.61
2019-03-03T07:38:34.121Z,1015.61
2019-03-03T07:39:34.124Z,1015.62
2019-03-03T07:40:34.117Z,1015.57
2019-03-03T07:41:34.149Z,1015.62
2019-03-03T07:42:34.120Z,1015.68
2019-03-03T07:43:34.100Z,1015.67
2019-03-03T07:44:34.096Z,1015.68
2019-03-03T07:45:34.112Z,1015.72
2019-03-03T07:46:34.106Z,1015.73
2019-03-03T07:47:34.091Z,1015.72
2019-03-03T07:48:34.104Z,1015.71
2019-03-03T07:49:34.107Z,1015.72
2019-03-03T07:50:34.113Z,1015.71
2019-03-03T07:51:34.121Z,1015.65
2019-03-03T07:52:34.109Z,1015.67
2019-03-03T07:53:34.097Z,1015.65
2019-03-03T07:54:34.099Z,1015.66
2019-03-03T07:55:34.174Z,1015.69
2019-03-03T07:56:34.089Z,1015.75
2019-03-03T07:57:34.105Z,1015.66
2019-03-03T07:58:34.105Z,1015.67
2019-03-03T07:59:34.086Z,1015.62
2019-03-03T08:00:34.114Z,1015.67
2019-03-03T08:01:34.100Z,1015.55
2019-03-03T08:02:34.112Z,1015.58
2019-03-03T08:03:34.082Z,1015.67
2019-03-03T08:04:34.075Z,1015.63
2019-03-03T08:05:34.109Z,1015.69
2019-03-03T08:06:34.133Z,1015.66
2019-03-03T08:07:34.081Z,1015.67
2019-03-03T08:08:34.074Z,1015.72
2019-03-03T08:09:34.066Z,1015.64
2019-03-03T08:10:34.083Z,1015.62
2019-03-03T08:11:34.061Z,1015.67
2019-03-03T08:12:34.083Z,1015.63
2019-03-03T08:13:34.095Z,1015.62
2019-03-03T08:14:34.073Z,1015.59
2019-03-03T08:15:34.107Z,1015.55
2019-03-03T08:16:34.072Z,1015.56
2019-03-03T08:17:34.112Z,1015.54
2019-03-03T08:18:34.064Z,1015.5
2019-03-03T08:19:34.073Z,1015.51
2019-03-03T08:20:34.085Z,1015.49
2019-03-03T08:21:34.044Z,1015.51
2019-03-03T08:22:34.146Z,1015.58
2019-03-03T08:23:34.071Z,1015.6
2019-03-03T08:24:34.036Z,1015.55
2019-03-03T08:25:34.068Z,1015.55
2019-03-03T08:26:34.059Z,1015.52
2019-03-03T08:27:34.081Z,1015.59
2019-03-03T08:28:34.041Z,1015.55
2019-03-03T08:29:34.069Z,1015.57
2019-03-03T08:30:34.057Z,1015.56
2019-03-03T08:31:34.057Z,1015.53
2019-03-03T08:32:34.115Z,1015.51
2019-03-03T08:33:34.097Z,1015.51
2019-03-03T08:34:34.059Z,1015.56
2019-03-03T08:35:34.048Z,1015.51
2019-03-03T08:36:34.092Z,1015.56
2019-03-03T08:37:34.054Z,1015.55
2019-03-03T08:38:34.098Z,1015.56
2019-03-03T08:39:34.307Z,1015.55
2019-03-03T08:40:34.036Z,1015.5
2019-03-03T08:41:34.251Z,1015.49
2019-03-03T08:42:34.041Z,1015.51
2019-03-03T08:43:34.066Z,1015.51
2019-03-03T08:44:34.074Z,1015.47
2019-03-03T08:45:34.031Z,1015.47
2019-03-03T08:46:34.243Z,1015.5
2019-03-03T08:47:34.074Z,1015.52
2019-03-03T08:48:34.018Z,1015.51
2019-03-03T08:49:34.026Z,1015.45
2019-03-03T08:50:34.023Z,1015.49
2019-03-03T08:51:34.028Z,1015.46
2019-03-03T08:52:34.010Z,1015.52
2019-03-03T08:53:34.081Z,1015.52
2019-03-03T08:54:34.064Z,1015.51
2019-03-03T08:55:34.006Z,1015.6
2019-03-03T08:56:33.999Z,1015.6
2019-03-03T08:57:34.027Z,1015.57
2019-03-03T08:58:34.023Z,1015.61
2019-03-03T08:59:34.009Z,1015.62
2019-03-03T09:00:34.011Z,1015.72
2019-03-03T09:01:34.038Z,1015.73
2019-03-03T09:02:34.028Z,1015.62
2019-03-03T09:03:33.982Z,1015.64
2019-03-03T09:04:34.010Z,1015.69
2019-03-03T09:05:33.993Z,1015.72
2019-03-03T09:06:33.996Z,1015.63
2019-03-03T09:07:34.009Z,1015.64
2019-03-03T09:08:34.009Z,1015.61
2019-03-03T09:09:33.988Z,1015.63
2019-03-03T09:10:33.983Z,1015.54
2019-03-03T09:11:33.997Z,1015.65
2019-03-03T09:12:34.241Z,1015.55
2019-03-03T09:13:34.002Z,1015.57
2019-03-03T09:14:34.029Z,1015.6
2019-03-03T09:15:33.986Z,1015.5
2019-03-03T09:16:34.025Z,1015.56
2019-03-03T09:17:34.035Z,1015.5
2019-03-03T09:18:34.074Z,1015.66
2019-03-03T09:19:33.981Z,1015.66
2019-03-03T09:20:33.960Z,1015.65
2019-03-03T09:21:34.058Z,1015.75
2019-03-03T09:22:33.973Z,1015.66
2019-03-03T09:23:33.990Z,1015.69
2019-03-03T09:24:33.958Z,1015.74
2019-03-03T09:25:33.984Z,1015.75
2019-03-03T09:26:33.975Z,1015.73
2019-03-03T09:27:33.972Z,1015.67
2019-03-03T09:28:34.222Z,1015.67
2019-03-03T09:29:34.221Z,1015.65
2019-03-03T09:30:33.952Z,1015.7
2019-03-03T09:31:33.979Z,1015.74
2019-03-03T09:32:33.988Z,1015.73
2019-03-03T09:33:33.944Z,1015.72
2019-03-03T09:34:33.966Z,1015.65
2019-03-03T09:35:33.954Z,1015.64
2019-03-03T09:36:33.955Z,1015.64
2019-03-03T09:37:33.961Z,1015.63
2019-03-03T09:38:33.953Z,1015.59
2019-03-03T09:39:33.973Z,1015.63
2019-03-03T09:40:33.952Z,1015.67
2019-03-03T09:41:33.966Z,1015.59
2019-03-03T09:42:33.961Z,1015.65
2019-03-03T09:43:33.968Z,1015.64
2019-03-03T09:44:33.951Z,1015.7
2019-03-03T09:45:33.959Z,1015.66
2019-03-03T09:46:33.952Z,1015.66
2019-03-03T09:47:33.939Z,1015.68
2019-03-03T09:48:33.919Z,1015.58
2019-03-03T09:49:33.950Z,1015.61
2019-03-03T09:50:33.963Z,1015.65
2019-03-03T09:51:33.921Z,1015.54
2019-03-03T09:52:33.921Z,1015.57
2019-03-03T09:53:33.928Z,1015.56
2019-03-03T09:54:33.938Z,1015.55
2019-03-03T09:55:33.935Z,1015.56
2019-03-03T09:56:33.946Z,1015.59
2019-03-03T09:57:33.901Z,1015.51
2019-03-03T09:58:33.907Z,1015.6
2019-03-03T09:59:33.922Z,1015.63
2019-03-03T10:00:33.936Z,1015.55
2019-03-03T10:01:33.927Z,1015.6
2019-03-03T10:02:33.925Z,1015.53
2019-03-03T10:03:33.904Z,1015.54
2019-03-03T10:04:33.898Z,1015.6
2019-03-03T10:05:33.942Z,1015.61
2019-03-03T10:06:34.169Z,1015.58
2019-03-03T10:07:34.083Z,1015.63
2019-03-03T10:08:33.892Z,1015.61
2019-03-03T10:09:33.909Z,1015.56
2019-03-03T10:10:33.944Z,1015.58
2019-03-03T10:11:33.890Z,1015.51
2019-03-03T10:12:33.939Z,1015.56
2019-03-03T10:13:33.899Z,1015.59
2019-03-03T10:14:33.912Z,1015.49
2019-03-03T10:15:33.913Z,1015.54
2019-03-03T10:16:33.975Z,1015.52
2019-03-03T10:17:33.912Z,1015.51
2019-03-03T10:18:33.926Z,1015.49
2019-03-03T10:19:33.922Z,1015.53
2019-03-03T10:20:33.910Z,1015.49
2019-03-03T10:21:33.887Z,1015.48
2019-03-03T10:22:33.917Z,1015.39
2019-03-03T10:23:33.892Z,1015.44
2019-03-03T10:24:33.897Z,1015.38
2019-03-03T10:25:33.884Z,1015.41
2019-03-03T10:26:35.203Z,1015.45
2019-03-03T10:27:33.905Z,1015.43
2019-03-03T10:28:33.910Z,1015.41
2019-03-03T10:29:34.250Z,1015.4
2019-03-03T10:30:33.916Z,1015.38
2019-03-03T10:31:33.889Z,1015.48
2019-03-03T10:32:33.887Z,1015.45
2019-03-03T10:33:33.892Z,1015.34
2019-03-03T10:34:33.917Z,1015.34
2019-03-03T10:35:33.913Z,1015.37
2019-03-03T10:36:33.873Z,1015.33
2019-03-03T10:37:33.913Z,1015.34
2019-03-03T10:38:36.504Z,1015.32
2019-03-03T10:39:33.861Z,1015.32
2019-03-03T10:40:33.882Z,1015.36
2019-03-03T10:41:33.934Z,1015.34
2019-03-03T10:42:33.861Z,1015.31
2019-03-03T10:43:33.868Z,1015.34
2019-03-03T10:44:33.916Z,1015.36
2019-03-03T10:45:33.906Z,1015.36
2019-03-03T10:46:33.871Z,1015.35
2019-03-03T10:47:33.868Z,1015.25
2019-03-03T10:48:33.851Z,1015.3
2019-03-03T10:49:33.851Z,1015.32
2019-03-03T10:50:33.907Z,1015.28
2019-03-03T10:51:33.859Z,1015.19
2019-03-03T10:52:33.923Z,1015.36
2019-03-03T10:53:33.854Z,1015.24
2019-03-03T10:54:33.850Z,1015.24
2019-03-03T10:55:33.870Z,1015.2
2019-03-03T10:56:33.858Z,1015.23
2019-03-03T10:57:33.939Z,1015.23
2019-03-03T10:58:33.845Z,1015.17
2019-03-03T10:59:33.943Z,1015.23
2019-03-03T11:00:33.844Z,1015.22
2019-03-03T11:01:33.892Z,1015.13
2019-03-03T11:02:33.847Z,1015.18
2019-03-03T11:03:33.844Z,1015.14
2019-03-03T11:04:33.855Z,1015.17
2019-03-03T11:05:33.840Z,1015.12
2019-03-03T11:06:33.848Z,1015.1
2019-03-03T11:07:33.823Z,1015.07
2019-03-03T11:08:33.849Z,1015.04
2019-03-03T11:09:33.840Z,1015.1
2019-03-03T11:10:33.855Z,1014.95
2019-03-03T11:11:33.855Z,1015.02
2019-03-03T11:12:33.937Z,1015.04
2019-03-03T11:13:33.870Z,1015.02
2019-03-03T11:14:33.828Z,1015.08
2019-03-03T11:15:33.833Z,1015.01
2019-03-03T11:16:33.822Z,1015.02
2019-03-03T11:17:33.832Z,1014.91
2019-03-03T11:18:33.820Z,1015.02
2019-03-03T11:19:33.853Z,1014.95
2019-03-03T11:20:33.839Z,1014.88
2019-03-03T11:21:33.857Z,1014.91
2019-03-03T11:22:33.910Z,1014.94
2019-03-03T11:23:33.877Z,1014.94
2019-03-03T11:24:33.821Z,1014.94
2019-03-03T11:25:33.798Z,1014.88
2019-03-03T11:26:33.805Z,1014.87
2019-03-03T11:27:33.833Z,1014.94
2019-03-03T11:28:33.830Z,1014.92
2019-03-03T11:29:33.823Z,1014.97
2019-03-03T11:30:33.816Z,1014.93
2019-03-03T11:31:33.822Z,1014.97
2019-03-03T11:32:33.817Z,1014.99
2019-03-03T11:33:33.800Z,1014.95
2019-03-03T11:34:33.789Z,1014.96
2019-03-03T11:35:33.796Z,1014.94
2019-03-03T11:36:33.850Z,1014.99
2019-03-03T11:37:33.800Z,1014.92
2019-03-03T11:38:33.795Z,1014.86
2019-03-03T11:39:33.806Z,1014.93
2019-03-03T11:40:33.803Z,1014.85
2019-03-03T11:41:33.862Z,1014.89
2019-03-03T11:42:33.825Z,1014.88
2019-03-03T11:43:33.807Z,1014.86
2019-03-03T11:44:33.869Z,1014.87
2019-03-03T11:45:33.857Z,1014.85
2019-03-03T11:46:33.824Z,1014.79
2019-03-03T11:47:33.786Z,1014.8
2019-03-03T11:48:33.825Z,1014.77
2019-03-03T11:49:33.781Z,1014.73
2019-03-03T11:50:33.775Z,1014.77
2019-03-03T11:51:33.826Z,1014.73
2019-03-03T11:52:33.913Z,1014.73
2019-03-03T11:53:33.802Z,1014.75
2019-03-03T11:54:33.780Z,1014.64
2019-03-03T11:55:33.794Z,1014.64
2019-03-03T11:56:33.792Z,1014.7
2019-03-03T11:57:33.772Z,1014.66
2019-03-03T11:58:33.762Z,1014.67
2019-03-03T11:59:33.820Z,1014.66
2019-03-03T12:00:33.758Z,1014.67
2019-03-03T12:01:33.788Z,1014.67
2019-03-03T12:02:33.761Z,1014.63
2019-03-03T12:03:33.752Z,1014.58
2019-03-03T12:04:33.808Z,1014.6
2019-03-03T12:05:33.815Z,1014.54
2019-03-03T12:06:33.807Z,1014.52
2019-03-03T12:07:33.765Z,1014.53